createdAt,value
2019-01-04T00:01:03.043Z,5.33
2019-01-04T00:03:32.532Z,5.43
2019-01-04T00:06:02.106Z,5.73
2019-01-04T00:08:31.599Z,5.90
2019-01-04T00:11:01.052Z,5.63
2019-01-04T00:13:30.487Z,5.60
2019-01-04T00:15:59.976Z,6.00
2019-01-04T00:18:29.491Z,6.40
2019-01-04T00:20:58.943Z,5.60
2019-01-04T00:23:28.413Z,5.90
2019-01-04T00:25:57.901Z,6.17
2019-01-04T00:28:27.411Z,4.97
2019-01-04T00:30:57.071Z,6.10
2019-01-04T00:33:26.595Z,5.60
2019-01-04T00:35:56.069Z,5.87
2019-01-04T00:38:25.588Z,6.07
2019-01-04T00:40:55.035Z,5.77
2019-01-04T00:43:24.463Z,5.33
2019-01-04T00:45:53.952Z,5.47
2019-01-04T00:48:23.411Z,5.40
2019-01-04T00:50:52.854Z,5.90
2019-01-04T00:53:22.500Z,5.13
2019-01-04T00:56:23.417Z,5.40
2019-01-04T00:59:48.392Z,5.47
2019-01-04T01:03:05.100Z,5.20
2019-01-04T01:06:15.140Z,5.17
2019-01-04T01:09:29.573Z,5.37
2019-01-04T01:12:44.912Z,4.67
2019-01-04T01:16:00.983Z,5.37
2019-01-04T01:19:15.739Z,4.97
2019-01-04T01:22:22.234Z,4.73
2019-01-04T01:25:27.318Z,5.00
2019-01-04T01:28:39.356Z,5.50
2019-01-04T01:31:43.561Z,4.70
2019-01-04T01:34:53.862Z,4.40
2019-01-04T01:38:08.969Z,4.60
2019-01-04T01:40:58.689Z,4.20
2019-01-04T01:44:01.047Z,4.70
2019-01-04T01:46:47.104Z,4.03
2019-01-04T01:49:57.467Z,4.37
2019-01-04T01:52:34.107Z,4.40
2019-01-04T01:55:03.606Z,4.13
2019-01-04T01:57:33.105Z,4.00
2019-01-04T02:00:09.108Z,4.40
2019-01-04T02:02:38.555Z,4.13
2019-01-04T02:05:08.035Z,4.20
2019-01-04T02:07:37.522Z,4.90
2019-01-04T02:10:08.617Z,3.93
2019-01-04T02:12:38.260Z,4.30
2019-01-04T02:15:08.411Z,3.57
2019-01-04T02:17:37.907Z,4.33
2019-01-04T02:20:08.004Z,4.70
2019-01-04T02:22:37.516Z,4.17
2019-01-04T02:25:07.470Z,4.00
2019-01-04T02:27:36.936Z,4.20
2019-01-04T02:30:07.762Z,3.83
2019-01-04T02:32:37.265Z,4.10
2019-01-04T02:35:06.729Z,4.60
2019-01-04T02:37:36.217Z,4.50
2019-01-04T02:40:05.724Z,4.50
2019-01-04T02:42:35.208Z,4.33
2019-01-04T02:45:04.792Z,4.97
2019-01-04T02:47:34.310Z,5.37
2019-01-04T02:50:03.808Z,4.30
2019-01-04T02:52:33.274Z,4.87
2019-01-04T02:55:02.775Z,4.57
2019-01-04T02:57:32.279Z,4.50
2019-01-04T03:00:01.765Z,5.03
2019-01-04T03:02:31.330Z,5.03
2019-01-04T03:05:00.812Z,4.80
2019-01-04T03:07:30.420Z,5.37
2019-01-04T03:09:59.881Z,5.40
2019-01-04T03:12:29.290Z,5.13
2019-01-04T03:14:58.753Z,5.13
2019-01-04T03:17:28.213Z,5.10
2019-01-04T03:19:57.696Z,4.93
2019-01-04T03:22:27.210Z,5.37
2019-01-04T03:24:56.740Z,5.03
2019-01-04T03:27:26.528Z,4.57
2019-01-04T03:29:55.980Z,5.20
2019-01-04T03:32:25.491Z,5.33
2019-01-04T03:34:55.017Z,4.93
2019-01-04T03:37:24.494Z,5.30
2019-01-04T03:39:53.926Z,4.73
2019-01-04T03:42:23.403Z,5.03
2019-01-04T03:44:52.882Z,5.43
2019-01-04T03:47:22.348Z,4.83
2019-01-04T03:49:51.848Z,4.90
2019-01-04T03:52:21.330Z,4.93
2019-01-04T03:54:50.839Z,4.57
2019-01-04T03:57:20.336Z,5.13
2019-01-04T03:59:49.819Z,5.83
2019-01-04T04:02:19.258Z,5.47
2019-01-04T04:04:48.724Z,5.07
2019-01-04T04:07:18.244Z,5.50
2019-01-04T04:09:47.696Z,5.00
2019-01-04T04:12:17.161Z,4.97
2019-01-04T04:14:46.632Z,5.70
2019-01-04T04:17:16.244Z,4.73
2019-01-04T04:19:45.736Z,5.10
2019-01-04T04:22:15.188Z,5.10
2019-01-04T04:24:44.665Z,5.50
2019-01-04T04:27:14.126Z,5.10
2019-01-04T04:29:43.604Z,5.20
2019-01-04T04:32:13.086Z,5.20
2019-01-04T04:34:42.613Z,5.07
2019-01-04T04:37:12.127Z,5.30
2019-01-04T04:39:41.595Z,4.70
2019-01-04T04:42:11.104Z,5.20
2019-01-04T04:44:40.628Z,5.23
2019-01-04T04:47:10.101Z,4.97
2019-01-04T04:49:39.545Z,5.63
2019-01-04T04:52:08.979Z,5.63
2019-01-04T04:54:38.419Z,5.77
2019-01-04T04:57:07.930Z,5.90
2019-01-04T04:59:37.451Z,5.00
2019-01-04T05:02:07.064Z,5.83
2019-01-04T05:04:36.564Z,5.97
2019-01-04T05:07:06.019Z,5.47
2019-01-04T05:09:35.564Z,5.50
2019-01-04T05:12:05.019Z,5.73
2019-01-04T05:14:34.493Z,5.80
2019-01-04T05:17:03.970Z,5.67
2019-01-04T05:19:33.422Z,5.57
2019-01-04T05:22:02.969Z,6.30
2019-01-04T05:24:32.414Z,6.13
2019-01-04T05:27:01.932Z,5.77
2019-01-04T05:29:31.395Z,6.07
2019-01-04T05:32:00.833Z,6.70
2019-01-04T05:34:30.320Z,6.40
2019-01-04T05:36:59.754Z,6.10
2019-01-04T05:39:29.277Z,6.57
2019-01-04T05:41:58.728Z,6.97
2019-01-04T05:44:28.268Z,6.47
2019-01-04T05:46:57.755Z,6.43
2019-01-04T05:49:27.244Z,7.20
2019-01-04T05:51:56.673Z,7.37
2019-01-04T05:54:26.225Z,7.40
2019-01-04T05:56:55.670Z,7.53
2019-01-04T05:59:25.256Z,7.43
2019-01-04T06:01:54.744Z,7.97
2019-01-04T06:04:24.207Z,7.63
2019-01-04T06:06:53.673Z,8.07
2019-01-04T06:09:23.157Z,8.20
2019-01-04T06:11:52.666Z,7.63
2019-01-04T06:14:22.116Z,8.17
2019-01-04T06:16:51.631Z,8.03
2019-01-04T06:19:21.140Z,7.93
2019-01-04T06:21:50.630Z,7.90
2019-01-04T06:24:20.124Z,7.97
2019-01-04T06:26:49.621Z,7.70
2019-01-04T06:29:19.121Z,8.17
2019-01-04T06:31:48.632Z,7.77
2019-01-04T06:34:18.155Z,7.70
2019-01-04T06:36:47.602Z,7.80
2019-01-04T06:39:17.151Z,8.57
2019-01-04T06:41:46.661Z,9.00
2019-01-04T06:44:16.137Z,8.07
2019-01-04T06:47:22.701Z,8.57
2019-01-04T06:49:52.653Z,8.03
2019-01-04T06:52:23.325Z,7.77
2019-01-04T06:55:43.152Z,7.63
2019-01-04T06:58:12.679Z,9.07
2019-01-04T07:00:42.259Z,8.87
2019-01-04T07:03:11.830Z,8.57
2019-01-04T07:05:41.335Z,9.00
2019-01-04T07:08:10.826Z,8.37
2019-01-04T07:10:40.253Z,8.63
2019-01-04T07:13:09.817Z,8.80
2019-01-04T07:15:39.364Z,8.53
2019-01-04T07:18:08.836Z,7.67
2019-01-04T07:20:38.329Z,8.20
2019-01-04T07:23:07.886Z,8.47
2019-01-04T07:25:37.413Z,8.53
2019-01-04T07:28:06.893Z,8.37
2019-01-04T07:30:36.540Z,8.37
2019-01-04T07:33:06.079Z,8.93
2019-01-04T07:35:35.691Z,9.10
2019-01-04T07:38:05.154Z,8.00
2019-01-04T07:40:34.641Z,8.43
2019-01-04T07:43:04.090Z,8.07
2019-01-04T07:45:33.611Z,8.37
2019-01-04T07:48:03.105Z,8.30
2019-01-04T07:50:32.601Z,8.43
2019-01-04T07:53:02.183Z,8.17
2019-01-04T07:55:31.688Z,8.60
2019-01-04T07:58:01.194Z,7.43
2019-01-04T08:00:30.684Z,8.77
2019-01-04T08:03:13.825Z,8.33
2019-01-04T08:05:43.298Z,8.63
2019-01-04T08:08:12.809Z,7.43
2019-01-04T08:10:42.403Z,6.63
2019-01-04T08:13:11.995Z,7.80
2019-01-04T08:15:41.517Z,8.17
2019-01-04T08:18:11.016Z,8.17
2019-01-04T08:20:40.570Z,7.40
2019-01-04T08:23:10.079Z,7.03
2019-01-04T08:25:39.586Z,7.80
2019-01-04T08:28:09.075Z,7.87
2019-01-04T08:30:38.526Z,7.77
2019-01-04T08:33:08.025Z,7.87
2019-01-04T08:35:37.499Z,8.03
2019-01-04T08:38:06.932Z,8.30
2019-01-04T08:40:36.439Z,7.63
2019-01-04T08:43:05.920Z,8.47
2019-01-04T08:45:35.407Z,9.10
2019-01-04T08:48:04.974Z,7.17
2019-01-04T08:50:34.467Z,8.33
2019-01-04T08:53:03.961Z,7.70
2019-01-04T08:55:33.423Z,8.70
2019-01-04T08:58:02.896Z,9.77
2019-01-04T09:00:32.505Z,10.27
2019-01-04T09:03:02.031Z,10.10
2019-01-04T09:05:31.534Z,10.40
2019-01-04T09:08:03.090Z,8.37
2019-01-04T09:10:32.659Z,8.10
2019-01-04T09:13:03.689Z,7.57
2019-01-04T09:15:33.479Z,6.93
2019-01-04T09:18:02.968Z,7.20
2019-01-04T09:20:32.445Z,7.43
2019-01-04T09:23:01.921Z,8.80
2019-01-04T09:25:31.422Z,8.63
2019-01-04T09:28:00.874Z,7.70
2019-01-04T09:30:30.354Z,8.43
2019-01-04T09:32:59.827Z,8.97
2019-01-04T09:35:29.319Z,10.47
2019-01-04T09:37:58.826Z,9.23
2019-01-04T09:40:28.295Z,8.97
2019-01-04T09:42:57.778Z,8.53
2019-01-04T09:45:27.328Z,8.57
2019-01-04T09:47:56.827Z,7.83
2019-01-04T09:50:26.363Z,9.00
2019-01-04T09:52:55.849Z,9.33
2019-01-04T09:55:25.327Z,9.10
2019-01-04T09:57:54.805Z,9.30
2019-01-04T10:00:24.352Z,7.37
2019-01-04T10:02:53.886Z,7.93
2019-01-04T10:05:23.339Z,8.23
2019-01-04T10:07:52.785Z,7.97
2019-01-04T10:10:22.232Z,8.20
2019-01-04T10:12:51.680Z,8.50
2019-01-04T10:15:21.203Z,8.77
2019-01-04T10:17:50.677Z,9.23
2019-01-04T10:20:20.144Z,8.80
2019-01-04T10:22:49.622Z,8.13
2019-01-04T10:25:19.101Z,8.87
2019-01-04T10:27:48.660Z,9.23
2019-01-04T10:30:31.919Z,10.17
2019-01-04T10:33:01.404Z,10.40
2019-01-04T10:35:32.351Z,9.80
2019-01-04T10:38:01.999Z,10.47
2019-01-04T10:40:31.500Z,10.33
2019-01-04T10:43:01.270Z,10.50
2019-01-04T10:45:30.727Z,10.03
2019-01-04T10:48:00.201Z,10.80
2019-01-04T10:50:29.714Z,10.23
2019-01-04T10:52:59.172Z,10.87
2019-01-04T10:55:28.657Z,11.20
2019-01-04T10:57:58.131Z,10.77
2019-01-04T11:00:27.713Z,11.53
2019-01-04T11:02:57.185Z,11.07
2019-01-04T11:05:26.624Z,10.57
2019-01-04T11:07:56.419Z,11.23
2019-01-04T11:10:25.929Z,11.60
2019-01-04T11:12:55.379Z,11.10
2019-01-04T11:15:24.848Z,10.90
2019-01-04T11:17:54.441Z,10.47
2019-01-04T11:20:48.404Z,10.73
2019-01-04T11:24:00.827Z,12.10
2019-01-04T11:26:54.477Z,10.20
2019-01-04T11:30:13.000Z,9.73
2019-01-04T11:33:07.009Z,9.87
2019-01-04T11:36:12.321Z,9.17
2019-01-04T11:38:51.776Z,7.27
2019-01-04T11:41:45.539Z,6.90
2019-01-04T11:44:53.461Z,7.00
2019-01-04T11:47:52.010Z,7.30
2019-01-04T11:51:13.382Z,7.53
2019-01-04T11:53:42.978Z,8.10
2019-01-04T11:56:12.589Z,8.30
2019-01-04T11:58:42.116Z,9.40
2019-01-04T12:01:11.588Z,9.73
2019-01-04T12:03:41.067Z,10.13
2019-01-04T12:06:10.597Z,10.03
2019-01-04T12:08:40.036Z,10.47
2019-01-04T12:11:09.508Z,9.70
2019-01-04T12:13:39.008Z,9.90
2019-01-04T12:16:08.505Z,9.03
2019-01-04T12:18:38.148Z,10.80
2019-01-04T12:21:07.763Z,10.17
2019-01-04T12:23:37.266Z,10.30
2019-01-04T12:26:06.822Z,10.80
2019-01-04T12:28:36.420Z,11.07
2019-01-04T12:31:06.031Z,11.13
2019-01-04T12:33:35.576Z,10.70
2019-01-04T12:36:05.086Z,9.27
2019-01-04T12:38:34.632Z,9.30
2019-01-04T12:41:04.264Z,9.03
2019-01-04T12:43:34.135Z,8.83
2019-01-04T12:46:03.939Z,8.93
2019-01-04T12:48:33.407Z,8.80
2019-01-04T12:51:02.874Z,9.10
2019-01-04T12:53:32.322Z,8.97
2019-01-04T12:56:01.916Z,8.60
2019-01-04T12:58:31.384Z,8.80
2019-01-04T13:01:01.122Z,8.93
2019-01-04T13:03:30.641Z,8.80
2019-01-04T13:06:00.103Z,8.83
2019-01-04T13:08:29.606Z,9.13
2019-01-04T13:10:59.069Z,9.23
2019-01-04T13:13:28.554Z,9.97
2019-01-04T13:15:58.370Z,8.73
2019-01-04T13:18:27.856Z,10.03
2019-01-04T13:20:57.386Z,10.47
2019-01-04T13:23:26.893Z,10.30
2019-01-04T13:25:56.366Z,9.73
2019-01-04T13:28:25.903Z,9.57
2019-01-04T13:30:55.478Z,10.07
2019-01-04T13:33:24.941Z,10.50
2019-01-04T13:35:54.452Z,10.67
2019-01-04T13:38:23.961Z,10.60
2019-01-04T13:40:53.424Z,10.37
2019-01-04T13:43:22.924Z,11.40
2019-01-04T13:45:52.550Z,10.90
2019-01-04T13:48:22.089Z,11.53
2019-01-04T13:50:51.729Z,11.60
2019-01-04T13:53:21.215Z,10.63
2019-01-04T13:55:50.716Z,12.17
2019-01-04T13:58:20.171Z,13.70
2019-01-04T14:00:49.637Z,14.87
2019-01-04T14:03:19.131Z,16.13
2019-01-04T14:05:48.667Z,16.23
2019-01-04T14:08:18.241Z,15.47
2019-01-04T14:10:47.825Z,15.67
2019-01-04T14:13:17.302Z,18.03
2019-01-04T14:15:46.790Z,17.30
2019-01-04T14:18:16.363Z,16.87
2019-01-04T14:20:45.850Z,15.70
2019-01-04T14:23:15.399Z,15.83
2019-01-04T14:25:44.941Z,16.47
2019-01-04T14:28:14.421Z,16.83
2019-01-04T14:30:44.019Z,16.23
2019-01-04T14:33:13.598Z,14.13
2019-01-04T14:35:43.164Z,13.37
2019-01-04T14:38:12.635Z,15.57
2019-01-04T14:40:42.413Z,12.70
2019-01-04T14:43:11.997Z,12.77
2019-01-04T14:45:41.639Z,11.67
2019-01-04T14:48:11.209Z,11.97
2019-01-04T14:50:40.621Z,13.47
2019-01-04T14:53:10.105Z,12.20
2019-01-04T14:55:39.747Z,11.70
2019-01-04T14:58:09.251Z,12.53
2019-01-04T15:00:38.777Z,11.93
2019-01-04T15:03:08.440Z,12.73
2019-01-04T15:05:38.303Z,12.00
2019-01-04T15:08:07.907Z,12.57
2019-01-04T15:10:37.444Z,12.00
2019-01-04T15:13:06.996Z,11.93
2019-01-04T15:15:36.563Z,12.43
2019-01-04T15:18:06.091Z,12.67
2019-01-04T15:20:36.076Z,13.23
2019-01-04T15:23:05.560Z,12.03
2019-01-04T15:25:35.089Z,11.63
2019-01-04T15:28:04.578Z,12.30
2019-01-04T15:30:34.043Z,13.17
2019-01-04T15:33:03.591Z,14.00
2019-01-04T15:35:33.097Z,13.80
2019-01-04T15:38:02.811Z,14.23
2019-01-04T15:40:32.339Z,15.27
2019-01-04T15:43:02.008Z,14.83
2019-01-04T15:45:31.556Z,15.37
2019-01-04T15:48:01.153Z,14.67
2019-01-04T15:50:30.642Z,18.03
2019-01-04T15:53:00.238Z,17.17
2019-01-04T15:55:29.771Z,17.50
2019-01-04T15:57:59.760Z,18.63
2019-01-04T16:00:29.259Z,18.13
2019-01-04T16:02:58.805Z,16.50
2019-01-04T16:05:28.363Z,16.73
2019-01-04T16:07:58.048Z,17.23
2019-01-04T16:10:27.812Z,17.60
2019-01-04T16:12:57.496Z,18.60
2019-01-04T16:15:28.402Z,17.53
2019-01-04T16:17:57.907Z,16.87
2019-01-04T16:20:27.633Z,15.90
2019-01-04T16:22:57.105Z,17.33
2019-01-04T16:25:26.625Z,15.77
2019-01-04T16:27:56.074Z,16.10
2019-01-04T16:30:25.587Z,16.23
2019-01-04T16:32:55.166Z,15.87
2019-01-04T16:35:24.750Z,15.97
2019-01-04T16:37:54.485Z,14.63
2019-01-04T16:40:24.439Z,10.70
2019-01-04T16:42:53.904Z,9.60
2019-01-04T16:45:23.392Z,9.27
2019-01-04T16:47:52.982Z,7.27
2019-01-04T16:50:22.557Z,7.50
2019-01-04T16:52:52.251Z,7.30
2019-01-04T16:55:23.142Z,7.00
2019-01-04T16:57:52.838Z,7.90
2019-01-04T17:00:22.383Z,8.60
2019-01-04T17:02:52.062Z,9.03
2019-01-04T17:05:21.861Z,9.17
2019-01-04T17:07:51.869Z,9.20
2019-01-04T17:10:21.296Z,9.57
2019-01-04T17:12:50.829Z,8.83
2019-01-04T17:15:20.334Z,9.23
2019-01-04T17:17:49.821Z,10.20
2019-01-04T17:20:19.378Z,10.17
2019-01-04T17:22:48.921Z,7.50
2019-01-04T17:25:18.374Z,8.10
2019-01-04T17:27:47.961Z,10.07
2019-01-04T17:30:17.449Z,9.20
2019-01-04T17:32:46.933Z,8.23
2019-01-04T17:35:16.449Z,9.73
2019-01-04T17:37:45.968Z,8.80
2019-01-04T17:40:15.493Z,8.90
2019-01-04T17:42:45.130Z,8.10
2019-01-04T17:45:14.796Z,8.30
2019-01-04T17:47:44.590Z,8.00
2019-01-04T17:50:14.072Z,8.20
2019-01-04T17:52:43.529Z,7.80
2019-01-04T17:55:13.055Z,7.90
2019-01-04T17:57:42.601Z,7.37
2019-01-04T18:00:13.903Z,6.00
2019-01-04T18:02:43.439Z,6.43
2019-01-04T18:05:13.173Z,7.10
2019-01-04T18:07:42.706Z,8.17
2019-01-04T18:10:12.222Z,8.30
2019-01-04T18:12:41.811Z,9.43
2019-01-04T18:15:11.342Z,8.53
2019-01-04T18:17:40.835Z,8.80
2019-01-04T18:20:11.099Z,8.87
2019-01-04T18:22:40.641Z,7.30
2019-01-04T18:25:10.127Z,8.03
2019-01-04T18:27:39.637Z,8.30
2019-01-04T18:30:11.043Z,8.20
2019-01-04T18:32:41.064Z,8.97
2019-01-04T18:35:10.566Z,8.77
2019-01-04T18:37:40.068Z,10.67
2019-01-04T18:40:10.906Z,10.90
2019-01-04T18:42:40.647Z,10.53
2019-01-04T18:45:10.148Z,9.50
2019-01-04T18:47:41.378Z,9.53
2019-01-04T18:50:14.636Z,8.73
2019-01-04T18:52:44.197Z,8.70
2019-01-04T18:55:13.685Z,8.33
2019-01-04T18:57:43.311Z,6.07
2019-01-04T19:00:13.314Z,7.83
2019-01-04T19:02:44.113Z,8.77
2019-01-04T19:05:13.593Z,7.43
2019-01-04T19:07:43.478Z,8.70
2019-01-04T19:10:12.925Z,9.90
2019-01-04T19:12:42.353Z,9.40
2019-01-04T19:15:12.204Z,10.10
2019-01-04T19:17:41.695Z,6.80
2019-01-04T19:20:11.182Z,7.23
2019-01-04T19:22:40.728Z,7.63
2019-01-04T19:25:10.265Z,6.43
2019-01-04T19:27:43.156Z,6.50
2019-01-04T19:30:12.950Z,8.43
2019-01-04T19:32:43.164Z,7.63
2019-01-04T19:35:12.665Z,8.13
2019-01-04T19:37:42.115Z,7.37
2019-01-04T19:40:12.004Z,7.60
2019-01-04T19:42:41.461Z,7.37
2019-01-04T19:45:11.106Z,7.40
2019-01-04T19:47:40.604Z,8.10
2019-01-04T19:50:21.776Z,7.90
2019-01-04T19:52:51.392Z,7.80
2019-01-04T19:55:20.900Z,7.80
2019-01-04T19:57:50.387Z,7.87
2019-01-04T20:00:19.891Z,7.40
2019-01-04T20:02:49.445Z,7.47
2019-01-04T20:06:12.352Z,8.00
2019-01-04T20:09:39.346Z,7.63
2019-01-04T20:13:06.350Z,6.83
2019-01-04T20:16:12.651Z,7.43
2019-01-04T20:19:13.438Z,7.73
2019-01-04T20:22:01.884Z,7.10
2019-01-04T20:24:56.517Z,7.53
2019-01-04T20:27:49.636Z,8.23
2019-01-04T20:30:38.445Z,7.50
2019-01-04T20:33:30.052Z,7.23
2019-01-04T20:36:18.434Z,9.43
2019-01-04T20:39:15.931Z,11.83
2019-01-04T20:42:13.504Z,10.23
2019-01-04T20:45:00.561Z,8.17
2019-01-04T20:47:57.694Z,9.30
2019-01-04T20:50:56.695Z,13.03
2019-01-04T20:53:43.927Z,12.67
2019-01-04T20:56:43.066Z,12.57
2019-01-04T20:59:31.539Z,11.80
2019-01-04T21:02:18.568Z,13.73
2019-01-04T21:05:05.916Z,12.70
2019-01-04T21:07:59.658Z,13.97
2019-01-04T21:11:00.047Z,12.90
2019-01-04T21:13:47.205Z,13.10
2019-01-04T21:16:38.791Z,14.27
2019-01-04T21:19:39.585Z,14.37
2019-01-04T21:22:38.187Z,15.10
2019-01-04T21:25:26.727Z,14.70
2019-01-04T21:28:18.545Z,14.67
2019-01-04T21:31:05.711Z,13.67
2019-01-04T21:34:05.974Z,13.43
2019-01-04T21:36:53.306Z,13.37
2019-01-04T21:39:40.297Z,14.33
2019-01-04T21:42:33.678Z,13.60
2019-01-04T21:45:20.868Z,13.30
2019-01-04T21:48:09.374Z,13.83
2019-01-04T21:51:06.675Z,13.93
2019-01-04T21:54:01.677Z,13.60
2019-01-04T21:56:59.464Z,13.00
2019-01-04T21:59:46.683Z,12.33
2019-01-04T22:02:41.028Z,12.13
2019-01-04T22:05:32.414Z,12.57
2019-01-04T22:08:19.829Z,12.80
2019-01-04T22:11:09.278Z,12.53
2019-01-04T22:14:15.884Z,13.80
2019-01-04T22:17:02.682Z,12.83
2019-01-04T22:19:49.706Z,13.63
2019-01-04T22:22:38.229Z,12.57
2019-01-04T22:25:45.108Z,13.30
2019-01-04T22:28:36.234Z,13.87
2019-01-04T22:31:27.247Z,16.17
2019-01-04T22:34:17.892Z,16.70
2019-01-04T22:37:18.452Z,15.10
2019-01-04T22:40:37.081Z,17.37
2019-01-04T22:43:28.782Z,16.90
2019-01-04T22:46:26.489Z,17.03
2019-01-04T22:49:27.019Z,16.60
2019-01-04T22:52:21.500Z,15.23
2019-01-04T22:55:22.224Z,16.20
2019-01-04T22:58:25.745Z,15.87
2019-01-04T23:01:14.184Z,16.83
2019-01-04T23:04:08.469Z,16.57
2019-01-04T23:07:09.189Z,16.03
2019-01-04T23:09:58.579Z,15.83
2019-01-04T23:12:56.156Z,13.90
2019-01-04T23:15:43.528Z,14.30
2019-01-04T23:18:47.248Z,13.00
2019-01-04T23:22:20.307Z,13.43
2019-01-04T23:25:14.840Z,12.70
2019-01-04T23:28:09.499Z,14.57
2019-01-04T23:30:56.546Z,14.27
2019-01-04T23:34:00.374Z,15.30
2019-01-04T23:37:03.964Z,13.93
2019-01-04T23:40:12.903Z,13.20
2019-01-04T23:43:03.454Z,12.87
2019-01-04T23:45:54.880Z,11.53
2019-01-04T23:48:52.462Z,11.53
2019-01-04T23:51:54.213Z,11.57
2019-01-04T23:54:43.177Z,11.40
2019-01-04T23:57:34.718Z,10.67
